Time;durP1;ratioP1;P1;durP2;ratioP2;P2;SDS_P1;SDS_P2;PMS_P1;PMS_P2;Temp;Humidity;BMP_temperature;BMP_pressure;BME280_temperature;BME280_humidity;BME280_pressure;Samples;Min_cycle;Max_cycle;Signal;HPM_P1;HPM_P2
2022/08/19 00:00:15;;;;;;;14.55;8.75;;;;;;;26.00;52.33;99324.09;5081522;28;20034;-71
2022/08/19 00:02:41;;;;;;;16.73;8.90;;;;;;;25.85;53.46;99321.41;5081524;28;20040;-71
2022/08/19 00:05:09;;;;;;;13.68;8.98;;;;;;;26.04;53.54;99317.06;5081657;28;20020;-71
2022/08/19 00:07:35;;;;;;;16.25;9.13;;;;;;;26.01;53.36;99298.63;5081519;28;20035;-71
2022/08/19 00:10:00;;;;;;;16.95;9.13;;;;;;;26.25;52.86;99307.00;5081580;28;20032;-71
2022/08/19 00:12:26;;;;;;;15.52;8.50;;;;;;;26.35;52.14;99305.09;5074719;28;20044;-71
2022/08/19 00:14:53;;;;;;;18.17;9.32;;;;;;;26.29;52.96;99317.03;5081250;28;20222;-70
2022/08/19 00:17:20;;;;;;;15.10;8.52;;;;;;;26.11;54.10;99308.66;5082116;28;20255;-71
2022/08/19 00:19:45;;;;;;;12.35;9.18;;;;;;;26.20;53.16;99310.53;5085333;28;20036;-71
2022/08/19 00:22:11;;;;;;;14.90;9.63;;;;;;;26.15;53.79;99304.31;5085070;28;20036;-71
2022/08/19 00:24:38;;;;;;;12.68;9.05;;;;;;;26.10;53.29;99302.41;5085248;28;20025;-71
2022/08/19 00:27:04;;;;;;;15.10;9.48;;;;;;;26.06;53.45;99304.84;5085270;28;20072;-71
2022/08/19 00:29:30;;;;;;;17.15;9.43;;;;;;;26.19;52.81;99286.38;5083064;28;20036;-71
2022/08/19 00:31:58;;;;;;;13.27;9.57;;;;;;;26.02;53.22;99286.69;5082254;28;20033;-71
2022/08/19 00:34:24;;;;;;;14.40;9.52;;;;;;;25.99;52.63;99289.94;5083374;28;20028;-71
2022/08/19 00:36:50;;;;;;;13.05;9.10;;;;;;;26.02;52.89;99292.94;5083387;28;20330;-71
2022/08/19 00:39:16;;;;;;;16.95;8.93;;;;;;;26.07;52.88;99286.69;5082399;28;20034;-71
2022/08/19 00:41:44;;;;;;;13.77;9.30;;;;;;;26.03;53.06;99285.59;5083841;28;20265;-71
2022/08/19 00:44:19;;;;;;;13.35;9.95;;;;;;;26.07;53.36;99278.53;5082468;28;20069;-71
2022/08/19 00:46:46;;;;;;;15.48;9.88;;;;;;;26.12;53.52;99283.16;5082001;28;20040;-71
2022/08/19 00:49:30;;;;;;;12.93;8.88;;;;;;;26.17;53.58;99286.66;5080986;28;20099;-71
2022/08/19 00:52:24;;;;;;;14.88;9.77;;;;;;;26.17;53.39;99281.22;5080573;28;20052;-71
2022/08/19 00:54:52;;;;;;;16.40;9.93;;;;;;;26.20;52.87;99282.59;5081694;28;20077;-71
2022/08/19 00:57:23;;;;;;;13.82;9.75;;;;;;;26.11;53.75;99281.53;5080592;28;20489;-71
2022/08/19 00:59:52;;;;;;;14.38;8.82;;;;;;;26.04;53.56;99282.63;5080940;28;20021;-71
2022/08/19 01:02:18;;;;;;;14.70;8.90;;;;;;;25.89;54.11;99284.50;5081460;28;20050;-71
2022/08/19 01:04:43;;;;;;;17.23;9.68;;;;;;;25.73;54.45;99281.81;5080796;28;20036;-71
2022/08/19 01:07:09;;;;;;;12.32;9.00;;;;;;;25.63;55.74;99281.78;5081328;28;20047;-71
2022/08/19 01:09:34;;;;;;;13.65;9.38;;;;;;;25.53;55.53;99284.50;5080980;28;20017;-71
2022/08/19 01:12:00;;;;;;;13.80;9.75;;;;;;;25.47;54.18;99285.59;5081561;28;20036;-71
2022/08/19 01:14:26;;;;;;;14.50;9.57;;;;;;;25.43;54.33;99282.59;5080763;28;20040;-71
2022/08/19 01:16:55;;;;;;;15.70;9.38;;;;;;;25.39;54.17;99284.22;5080737;28;20216;-71
2022/08/19 01:19:31;;;;;;;17.88;10.07;;;;;;;25.42;53.98;99289.09;5082999;28;20067;-71
2022/08/19 01:22:09;;;;;;;15.98;9.85;;;;;;;25.57;54.81;99287.47;5081563;28;20369;-71
2022/08/19 01:24:34;;;;;;;19.13;9.82;;;;;;;25.46;53.67;99271.22;5078049;28;20032;-71
2022/08/19 01:27:04;;;;;;;12.18;9.52;;;;;;;25.18;54.83;99301.53;5080288;28;20060;-72
2022/08/19 01:29:29;;;;;;;17.25;10.02;;;;;;;24.74;56.55;99311.91;5079200;28;20020;-72
2022/08/19 01:31:55;;;;;;;14.98;10.32;;;;;;;24.43;57.60;99308.25;5081080;28;20059;-72
2022/08/19 01:34:21;;;;;;;15.63;10.50;;;;;;;24.29;57.98;99313.34;5080126;28;20456;-72
2022/08/19 01:36:48;;;;;;;16.40;11.02;;;;;;;24.06;59.17;99322.63;5082997;28;20036;-72
2022/08/19 01:39:17;;;;;;;15.55;10.82;;;;;;;23.99;59.23;99319.34;5082312;28;20048;-72
2022/08/19 01:41:43;;;;;;;13.65;10.20;;;;;;;24.03;58.97;99319.63;5080620;28;20033;-72
2022/08/19 01:44:10;;;;;;;17.42;10.15;;;;;;;23.93;59.02;99323.06;5079840;28;20063;-72
2022/08/19 01:46:35;;;;;;;12.48;9.48;;;;;;;24.04;58.96;99322.06;5066307;28;20024;-72
2022/08/19 01:49:03;;;;;;;13.52;9.45;;;;;;;24.10;58.78;99317.50;5079713;28;20085;-72
2022/08/19 01:51:30;;;;;;;11.98;9.02;;;;;;;24.26;58.33;99323.84;5076382;28;20036;-72
2022/08/19 01:53:56;;;;;;;14.02;8.95;;;;;;;24.43;58.11;99333.44;5080165;28;20040;-72
2022/08/19 01:56:22;;;;;;;12.20;8.80;;;;;;;24.56;57.95;99325.91;5082166;28;20257;-72
2022/08/19 01:59:01;;;;;;;13.13;8.68;;;;;;;24.65;57.98;99327.03;5080647;28;20126;-72
2022/08/19 02:01:26;;;;;;;19.15;9.18;;;;;;;24.66;57.13;99328.66;5078199;28;20051;-72
2022/08/19 02:03:53;;;;;;;14.90;9.40;;;;;;;24.79;57.06;99328.19;5080290;28;20028;-72
2022/08/19 02:06:19;;;;;;;13.57;9.32;;;;;;;24.80;57.82;99325.22;5079498;28;20029;-72
2022/08/19 02:08:48;;;;;;;17.95;9.32;;;;;;;24.86;57.45;99333.34;5077157;28;20048;-72
2022/08/19 02:11:27;;;;;;;11.98;9.52;;;;;;;24.86;57.72;99328.75;5079880;28;20061;-72
2022/08/19 02:13:54;;;;;;;12.57;9.93;;;;;;;24.84;57.84;99329.03;5064443;28;20024;-72
2022/08/19 02:16:20;;;;;;;13.68;10.05;;;;;;;24.76;58.17;99329.53;5079627;28;20024;-72
2022/08/19 02:18:48;;;;;;;13.95;10.57;;;;;;;24.96;57.41;99334.19;5080647;28;20032;-72
2022/08/19 02:21:17;;;;;;;14.45;10.20;;;;;;;25.05;56.54;99329.97;5081512;28;20348;-72
2022/08/19 02:23:43;;;;;;;16.08;10.00;;;;;;;24.91;57.25;99331.47;5080604;28;20044;-72
2022/08/19 02:26:10;;;;;;;19.83;9.88;;;;;;;24.98;56.89;99339.41;5082501;28;20099;-72
2022/08/19 02:28:36;;;;;;;14.20;9.48;;;;;;;24.97;56.84;99351.28;5080361;28;20016;-72
2022/08/19 02:31:02;;;;;;;21.83;9.75;;;;;;;24.95;56.85;99351.53;5079029;28;20032;-72
2022/08/19 02:33:28;;;;;;;20.58;9.73;;;;;;;24.89;56.83;99349.88;5079153;28;20032;-72
2022/08/19 02:35:54;;;;;;;19.75;9.57;;;;;;;25.01;56.92;99355.13;5079605;28;20028;-72
2022/08/19 02:38:25;;;;;;;12.75;10.00;;;;;;;25.03;56.44;99350.28;5079632;28;20036;-72
2022/08/19 02:41:00;;;;;;;19.42;9.48;;;;;;;24.88;57.20;99348.25;5081235;28;20024;-72
2022/08/19 02:43:27;;;;;;;16.38;9.48;;;;;;;24.77;57.95;99347.41;5079528;28;20044;-72
2022/08/19 02:45:54;;;;;;;19.23;9.85;;;;;;;24.63;58.10;99357.09;5079150;28;20029;-72
2022/08/19 02:48:21;;;;;;;16.75;9.55;;;;;;;24.66;58.82;99358.44;5079121;28;20044;-72
2022/08/19 02:50:50;;;;;;;18.17;9.40;;;;;;;24.71;58.64;99362.00;5080711;28;20314;-72
2022/08/19 02:53:16;;;;;;;20.40;10.38;;;;;;;24.47;58.16;99356.19;5079211;28;20040;-72
2022/08/19 02:55:46;;;;;;;20.13;9.75;;;;;;;24.48;58.04;99368.66;5080535;28;20047;-72
2022/08/19 02:58:13;;;;;;;17.40;10.40;;;;;;;24.36;58.85;99369.91;5079595;28;20043;-72
2022/08/19 03:00:57;;;;;;;19.17;10.25;;;;;;;24.26;60.47;99375.25;5079776;28;20095;-71
2022/08/19 03:03:23;;;;;;;17.00;10.02;;;;;;;24.35;60.46;99373.69;5077338;28;20044;-71
2022/08/19 03:05:48;;;;;;;22.65;10.25;;;;;;;24.42;59.72;99375.09;5079135;28;20028;-71
2022/08/19 03:08:14;;;;;;;12.93;8.95;;;;;;;24.27;60.15;99385.84;5078869;28;20060;-71
2022/08/19 03:10:46;;;;;;;16.83;9.75;;;;;;;24.13;61.04;99380.03;5076620;28;20047;-71
2022/08/19 03:13:17;;;;;;;17.17;9.93;;;;;;;24.16;61.33;99384.91;5079195;28;20035;-71
2022/08/19 03:15:46;;;;;;;15.65;9.35;;;;;;;24.21;61.47;99370.59;5060897;28;20060;-72
2022/08/19 03:18:12;;;;;;;14.75;9.70;;;;;;;24.29;60.96;99380.97;5078351;28;20059;-72
2022/08/19 03:20:46;;;;;;;13.18;9.52;;;;;;;24.30;60.60;99393.44;5075314;28;20032;-72
2022/08/19 03:23:15;;;;;;;16.52;10.30;;;;;;;24.28;59.96;99387.47;5078812;28;20111;-72
2022/08/19 03:25:42;;;;;;;14.20;9.55;;;;;;;24.32;60.44;99393.97;5078704;28;20043;-71
2022/08/19 03:28:13;;;;;;;15.35;10.38;;;;;;;24.26;60.02;99397.69;5080964;28;20039;-72
2022/08/19 03:30:43;;;;;;;12.20;9.65;;;;;;;24.20;59.62;99402.25;5079330;28;20036;-71
2022/08/19 03:33:10;;;;;;;18.23;9.55;;;;;;;24.05;59.87;99407.56;5079043;28;20039;-71
2022/08/19 03:35:38;;;;;;;14.55;9.52;;;;;;;23.93;59.68;99401.50;5077841;28;20033;-72
2022/08/19 03:38:06;;;;;;;16.98;9.63;;;;;;;23.85;59.54;99402.75;5078271;28;20060;-72
2022/08/19 03:40:34;;;;;;;19.90;10.50;;;;;;;23.69;59.91;99400.97;5078731;28;20113;-71
2022/08/19 03:43:00;;;;;;;18.30;9.85;;;;;;;23.72;59.98;99411.28;5077761;28;20036;-71
2022/08/19 03:45:27;;;;;;;14.23;9.70;;;;;;;23.64;61.66;99406.34;5078949;28;20071;-71
2022/08/19 03:47:52;;;;;;;16.40;9.48;;;;;;;23.68;59.96;99406.63;5078314;28;20064;-71
2022/08/19 03:50:19;;;;;;;29.13;11.55;;;;;;;23.81;59.50;99409.75;5078269;28;20028;-71
2022/08/19 03:52:51;;;;;;;16.33;9.77;;;;;;;23.73;59.43;99407.50;5080257;28;20087;-71
2022/08/19 03:55:18;;;;;;;14.85;10.82;;;;;;;23.68;59.40;99406.63;5082912;28;20044;-71
2022/08/19 03:57:45;;;;;;;18.77;10.15;;;;;;;23.72;59.86;99424.78;5082558;28;20055;-71
2022/08/19 04:00:11;;;;;;;12.10;9.52;;;;;;;23.66;60.66;99384.47;5082938;28;20348;-71
2022/08/19 04:02:37;;;;;;;20.70;11.75;;;;;;;24.01;59.58;99421.84;5082409;28;20048;-71
2022/08/19 04:05:02;;;;;;;21.38;10.73;;;;;;;24.17;58.73;99420.91;5080246;28;20020;-71
2022/08/19 04:07:28;;;;;;;21.27;10.02;;;;;;;24.25;58.96;99422.31;5082862;28;20059;-71
2022/08/19 04:09:53;;;;;;;21.00;9.98;;;;;;;24.31;60.12;99415.88;5079604;28;20062;-71
2022/08/19 04:12:20;;;;;;;17.52;11.05;;;;;;;24.27;59.75;99414.78;5083290;28;20032;-71
2022/08/19 04:14:46;;;;;;;19.98;11.68;;;;;;;24.23;59.83;99417.16;5083931;28;20020;-71
2022/08/19 04:17:14;;;;;;;15.73;10.20;;;;;;;24.19;59.03;99408.75;5082172;28;20385;-71
2022/08/19 04:19:39;;;;;;;20.23;10.85;;;;;;;24.24;59.09;99418.78;5082516;28;20051;-71
2022/08/19 04:22:06;;;;;;;36.63;11.60;;;;;;;24.22;60.39;99415.53;5081203;28;20024;-71
2022/08/19 04:24:33;;;;;;;32.00;11.25;;;;;;;24.17;61.04;99418.19;5081550;28;20092;-72
2022/08/19 04:27:01;;;;;;;21.35;11.20;;;;;;;24.17;61.79;99416.31;5082361;28;20078;-72
2022/08/19 04:29:27;;;;;;;19.85;11.63;;;;;;;24.39;59.53;99424.34;5081888;28;20226;-72
2022/08/19 04:31:55;;;;;;;16.55;11.13;;;;;;;24.44;59.64;99420.84;5081830;28;20036;-72
2022/08/19 04:34:23;;;;;;;19.08;12.00;;;;;;;24.60;58.81;99424.47;5081447;28;20031;-72
2022/08/19 04:36:53;;;;;;;27.70;11.85;;;;;;;24.74;58.39;99433.75;5082047;28;20115;-72
2022/08/19 04:39:22;;;;;;;31.15;13.02;;;;;;;24.77;58.52;99425.13;5062414;28;20048;-72
2022/08/19 04:44:33;;;;;;;;;;;;;;;25.04;57.96;99427.75;5064230;28;20035;-72
2022/08/19 04:46:59;;;;;;;44.17;13.20;;;;;;;25.04;58.84;99431.28;5060720;28;19917;-72
2022/08/19 04:49:25;;;;;;;42.92;12.82;;;;;;;25.27;58.13;99421.06;5061233;28;20135;-72
2022/08/19 04:51:54;;;;;;;40.10;12.15;;;;;;;25.34;57.22;99422.44;5062572;28;20041;-72
2022/08/19 04:54:22;;;;;;;34.90;12.75;;;;;;;25.45;57.88;99421.38;5043519;28;20288;-71
2022/08/19 04:56:49;;;;;;;35.83;14.00;;;;;;;25.31;58.51;99414.03;5044073;28;20041;-72
2022/08/19 04:59:15;;;;;;;28.38;17.58;;;;;;;25.36;57.32;99424.88;5060921;28;20067;-72
2022/08/19 05:01:42;;;;;;;32.03;16.20;;;;;;;25.66;56.53;99418.75;5064584;28;20464;-72
2022/08/19 05:04:09;;;;;;;31.90;18.17;;;;;;;25.87;55.33;99422.31;5070975;28;20140;-72
2022/08/19 05:06:35;;;;;;;29.95;15.68;;;;;;;26.12;54.81;99418.81;5064085;28;20040;-72
2022/08/19 05:09:03;;;;;;;29.90;16.00;;;;;;;26.34;53.56;99422.09;5061760;28;20033;-72
2022/08/19 05:11:34;;;;;;;37.30;19.23;;;;;;;26.43;53.88;99425.88;5060413;28;20109;-72
2022/08/19 05:14:00;;;;;;;30.25;18.95;;;;;;;26.65;53.20;99423.66;5075876;28;20024;-72
2022/08/19 05:16:26;;;;;;;30.90;17.02;;;;;;;26.84;52.63;99428.50;5060489;28;20059;-72
2022/08/19 05:24:22;;;;;;;30.25;16.25;;;;;;;27.29;51.63;99422.13;5062800;28;20242;-72
2022/08/19 05:26:50;;;;;;;30.00;14.93;;;;;;;27.42;50.80;99429.69;5061465;28;20037;-72
2022/08/19 05:29:18;;;;;;;21.80;11.05;;;;;;;27.53;49.60;99417.66;5057651;28;20025;-72
2022/08/19 05:31:45;;;;;;;17.00;10.00;;;;;;;27.72;49.38;99426.00;5060812;28;20059;-72
2022/08/19 05:34:11;;;;;;;19.42;10.00;;;;;;;27.76;50.37;99432.50;5060408;28;20041;-72
2022/08/19 05:36:41;;;;;;;16.88;10.30;;;;;;;28.03;50.78;99436.66;5060792;28;20075;-72
2022/08/19 05:39:08;;;;;;;17.63;9.93;;;;;;;28.09;50.06;99427.34;5078988;28;20094;-72
2022/08/19 05:41:34;;;;;;;25.00;12.70;;;;;;;28.35;48.62;99438.91;5080026;28;20086;-72
2022/08/19 05:44:09;;;;;;;20.38;12.55;;;;;;;28.43;48.74;99421.94;5080721;28;20249;-72
2022/08/19 05:46:36;;;;;;;30.05;12.38;;;;;;;28.60;48.70;99431.28;5082805;28;20086;-72
2022/08/19 05:49:04;;;;;;;22.73;11.82;;;;;;;28.53;47.07;99435.47;5081210;28;20028;-72
2022/08/19 05:51:29;;;;;;;15.73;10.75;;;;;;;28.72;46.62;99436.34;5079894;28;20028;-72
2022/08/19 05:53:55;;;;;;;19.50;11.68;;;;;;;28.98;47.04;99434.19;5080604;28;20025;-72
2022/08/19 05:56:20;;;;;;;16.95;9.57;;;;;;;29.06;46.10;99436.25;5079792;28;20369;-72
2022/08/19 05:58:46;;;;;;;19.00;9.73;;;;;;;29.10;45.52;99436.50;5078373;28;20383;-72
2022/08/19 06:01:16;;;;;;;13.35;8.73;;;;;;;29.09;45.18;99430.22;5080265;28;20041;-72
2022/08/19 06:03:41;;;;;;;11.88;8.68;;;;;;;28.85;44.58;99440.31;5079798;28;20036;-72
2022/08/19 06:06:08;;;;;;;11.75;8.50;;;;;;;28.91;44.30;99450.06;5081811;28;20030;-72
2022/08/19 06:08:36;;;;;;;12.73;7.25;;;;;;;28.99;44.01;99449.44;5081169;28;20298;-73
2022/08/19 06:11:17;;;;;;;13.88;7.10;;;;;;;29.29;43.34;99444.75;5080219;28;20109;-72
2022/08/19 06:13:46;;;;;;;13.63;7.05;;;;;;;29.38;41.64;99446.53;5079924;28;20024;-72
2022/08/19 06:16:12;;;;;;;9.35;6.47;;;;;;;29.60;41.53;99439.72;5079066;28;20410;-72
2022/08/19 06:18:37;;;;;;;10.13;7.10;;;;;;;29.80;41.03;99439.41;5064063;28;20095;-72
2022/08/19 06:21:04;;;;;;;10.32;6.68;;;;;;;30.04;40.34;99442.88;5079058;28;20028;-72
2022/08/19 06:23:30;;;;;;;12.05;6.32;;;;;;;30.34;40.22;99446.25;5082082;28;20040;-72
2022/08/19 06:25:55;;;;;;;7.82;6.28;;;;;;;30.69;39.49;99451.09;5080676;28;20035;-73
2022/08/19 06:28:22;;;;;;;9.27;7.25;;;;;;;30.52;39.67;99442.66;5079739;28;20288;-72
2022/08/19 06:30:48;;;;;;;9.38;6.85;;;;;;;30.64;39.18;99448.47;5080795;28;20858;-72
2022/08/19 06:33:13;;;;;;;11.80;6.75;;;;;;;30.95;38.15;99447.88;5081412;28;20032;-72
2022/08/19 06:35:40;;;;;;;8.18;6.43;;;;;;;30.99;38.25;99438.78;5079462;28;20024;-72
2022/08/19 06:38:06;;;;;;;13.15;7.00;;;;;;;31.14;37.71;99445.84;5078843;28;20048;-72
2022/08/19 06:40:31;;;;;;;15.18;6.13;;;;;;;31.00;37.29;99451.31;5079060;28;20059;-72
2022/08/19 06:42:59;;;;;;;12.60;6.80;;;;;;;30.92;38.84;99445.75;5079304;28;20036;-72
2022/08/19 06:45:25;;;;;;;7.88;6.72;;;;;;;31.04;37.97;99449.59;5062229;28;21034;-72
2022/08/19 06:47:55;;;;;;;13.20;7.10;;;;;;;31.29;37.36;99437.38;5080485;28;20037;-72
2022/08/19 06:50:21;;;;;;;14.43;6.55;;;;;;;31.35;36.82;99444.38;5063204;28;20040;-72
2022/08/19 06:52:47;;;;;;;12.55;6.40;;;;;;;31.45;36.42;99435.13;5079066;28;20236;-72
2022/08/19 06:55:13;;;;;;;8.98;6.40;;;;;;;31.83;36.25;99443.06;5078523;28;20028;-72
2022/08/19 06:57:38;;;;;;;9.15;5.68;;;;;;;31.70;35.04;99450.19;5080008;28;20091;-72
2022/08/19 07:00:06;;;;;;;10.82;5.95;;;;;;;31.85;35.55;99440.81;5081167;28;20367;-72
2022/08/19 07:02:32;;;;;;;14.82;7.38;;;;;;;31.99;35.09;99439.66;5079195;28;20557;-72
2022/08/19 07:04:57;;;;;;;15.57;6.63;;;;;;;32.30;34.42;99438.94;5078362;28;20028;-72
2022/08/19 07:07:23;;;;;;;12.00;6.68;;;;;;;32.38;34.26;99436.25;5079099;28;20044;-72
2022/08/19 07:09:53;;;;;;;11.60;6.43;;;;;;;32.59;34.41;99432.97;5078434;28;20044;-72
2022/08/19 07:12:18;;;;;;;13.98;6.53;;;;;;;32.68;33.65;99423.69;5079193;28;20351;-73
2022/08/19 07:14:48;;;;;;;15.52;6.80;;;;;;;32.61;34.13;99428.81;5078965;28;20099;-72
2022/08/19 07:17:14;;;;;;;10.40;6.28;;;;;;;32.67;33.87;99441.25;5079475;28;20028;-72
2022/08/19 07:19:42;;;;;;;9.43;6.72;;;;;;;32.84;33.83;99437.81;5078289;28;20078;-73
2022/08/19 07:22:09;;;;;;;13.95;6.03;;;;;;;32.66;33.79;99425.13;5078444;28;20028;-72
2022/08/19 07:24:36;;;;;;;16.02;7.60;;;;;;;32.69;33.38;99432.72;5077834;28;20039;-72
2022/08/19 07:27:04;;;;;;;8.73;6.03;;;;;;;32.73;33.85;99428.22;5076476;28;20036;-72
2022/08/19 07:29:33;;;;;;;12.07;5.80;;;;;;;33.15;33.02;99429.50;5077429;28;20044;-72
2022/08/19 07:32:00;;;;;;;12.38;5.53;;;;;;;33.20;32.73;99425.81;5076884;28;20032;-72
2022/08/19 07:34:27;;;;;;;9.65;5.80;;;;;;;33.60;32.81;99423.81;5078114;28;20143;-72
2022/08/19 07:36:54;;;;;;;8.30;5.18;;;;;;;33.62;31.73;99425.13;5076585;28;20036;-72
2022/08/19 07:39:26;;;;;;;9.38;5.90;;;;;;;33.77;32.11;99420.28;5077008;28;20183;-72
2022/08/19 07:41:52;;;;;;;11.80;5.57;;;;;;;33.67;31.11;99421.41;5077109;28;20040;-72
2022/08/19 07:44:20;;;;;;;9.25;5.20;;;;;;;33.63;31.93;99414.94;5076543;28;20050;-72
2022/08/19 07:46:50;;;;;;;10.05;5.60;;;;;;;33.81;30.85;99415.75;5076672;28;20043;-72
2022/08/19 07:49:19;;;;;;;10.75;5.60;;;;;;;33.91;31.42;99418.19;5078068;28;20045;-72
2022/08/19 07:51:56;;;;;;;7.68;5.38;;;;;;;33.94;30.83;99412.06;5077369;28;20369;-72
2022/08/19 07:54:24;;;;;;;10.40;5.03;;;;;;;33.98;31.00;99414.97;5077611;28;20058;-72
2022/08/19 07:56:50;;;;;;;13.15;5.78;;;;;;;34.00;31.28;99410.75;5076634;28;20086;-72
2022/08/19 07:59:17;;;;;;;10.00;4.95;;;;;;;34.05;30.51;99410.59;5058463;28;20064;-72
2022/08/19 08:01:44;;;;;;;8.23;5.40;;;;;;;34.08;30.90;99400.88;5077249;28;20051;-72
2022/08/19 08:09:38;;;;;;;;;;;;;;;34.54;30.53;99406.47;5077488;28;20032;-71
2022/08/19 08:12:11;;;;;;;9.63;5.43;;;;;;;34.75;29.85;99409.31;5076980;28;19916;-73
2022/08/19 08:14:43;;;;;;;9.73;5.50;;;;;;;34.83;29.26;99402.97;5077782;28;20032;-73
2022/08/19 08:17:10;;;;;;;13.95;5.32;;;;;;;35.00;30.04;99406.78;5075340;28;20119;-73
2022/08/19 08:19:37;;;;;;;8.80;5.32;;;;;;;34.93;29.17;99399.03;5076700;28;20059;-73
2022/08/19 08:22:05;;;;;;;8.65;4.95;;;;;;;34.97;29.65;99401.94;5076116;28;20055;-73
2022/08/19 08:24:31;;;;;;;11.00;4.78;;;;;;;34.93;30.19;99401.00;5076752;28;20272;-73
2022/08/19 08:26:59;;;;;;;10.85;5.28;;;;;;;34.91;29.91;99393.06;5076223;28;20036;-73
2022/08/19 08:29:27;;;;;;;11.52;6.25;;;;;;;34.98;29.89;99389.78;5075948;28;20036;-72
2022/08/19 08:31:53;;;;;;;11.10;5.97;;;;;;;35.02;30.47;99391.56;5077262;28;20113;-72
2022/08/19 08:34:20;;;;;;;7.50;5.00;;;;;;;34.71;30.83;99394.59;5076372;28;20036;-73
2022/08/19 08:36:46;;;;;;;11.65;5.32;;;;;;;34.93;29.76;99390.00;5077237;28;20372;-73
2022/08/19 08:39:15;;;;;;;10.88;5.90;;;;;;;34.87;30.10;99386.63;5080061;28;20089;-73
2022/08/19 08:41:56;;;;;;;16.05;4.95;;;;;;;35.14;29.66;99391.63;5080822;28;20222;-74
2022/08/19 08:44:38;;;;;;;17.25;5.38;;;;;;;35.30;29.11;99380.84;5079687;28;20341;-73
2022/08/19 08:47:12;;;;;;;7.30;4.82;;;;;;;35.12;28.98;99384.84;5079754;28;20028;-72
2022/08/19 08:49:54;;;;;;;14.45;5.15;;;;;;;35.28;28.68;99377.63;5078848;28;20024;-72
2022/08/19 08:52:29;;;;;;;12.73;5.47;;;;;;;35.51;28.63;99378.97;5078266;28;20066;-71
2022/08/19 08:54:58;;;;;;;11.85;5.35;;;;;;;35.49;27.01;99378.50;5083092;28;20043;-70
2022/08/19 08:57:34;;;;;;;10.90;5.57;;;;;;;35.80;26.99;99380.00;5083367;28;20033;-70
2022/08/19 09:00:05;;;;;;;9.05;5.53;;;;;;;35.71;27.43;99373.78;5081678;28;20035;-70
2022/08/19 09:02:31;;;;;;;9.10;5.70;;;;;;;35.55;28.39;99378.28;5080608;28;20040;-72
2022/08/19 09:04:56;;;;;;;9.30;5.50;;;;;;;35.68;28.90;99377.19;5080659;28;20229;-72
2022/08/19 09:07:45;;;;;;;8.48;5.30;;;;;;;36.02;27.41;99374.16;5083210;28;20074;-70
2022/08/19 09:10:31;;;;;;;18.45;5.88;;;;;;;36.18;25.94;99359.72;5082384;28;20200;-70
2022/08/19 09:12:59;;;;;;;6.97;5.00;;;;;;;36.21;26.97;99362.59;5079285;28;20056;-70
2022/08/19 09:15:32;;;;;;;8.27;5.40;;;;;;;36.00;26.76;99354.38;5081571;28;20095;-72
2022/08/19 09:18:03;;;;;;;7.77;5.27;;;;;;;35.89;26.51;99349.66;5081205;28;20200;-73
2022/08/19 09:20:30;;;;;;;8.23;5.32;;;;;;;35.34;28.23;99346.03;5080358;28;20024;-73
2022/08/19 09:22:56;;;;;;;6.15;4.85;;;;;;;35.55;28.37;99353.50;5082830;28;20126;-72
2022/08/19 09:25:22;;;;;;;8.90;6.05;;;;;;;35.53;28.37;99353.84;5082123;28;20322;-72
2022/08/19 09:27:49;;;;;;;11.90;6.22;;;;;;;35.62;27.40;99348.25;5080301;28;20024;-72
2022/08/19 09:30:24;;;;;;;7.22;5.28;;;;;;;35.72;27.32;99345.09;5081029;28;20069;-72
2022/08/19 09:32:54;;;;;;;7.32;5.25;;;;;;;35.49;26.74;99344.66;5081152;28;20334;-72
2022/08/19 09:35:22;;;;;;;7.72;5.50;;;;;;;35.34;27.70;99337.78;5080282;28;20305;-72
2022/08/19 09:37:49;;;;;;;17.20;6.22;;;;;;;35.17;27.96;99337.88;5078035;28;20032;-72
2022/08/19 09:40:15;;;;;;;9.25;5.45;;;;;;;34.98;28.47;99335.59;5080898;28;20058;-71
2022/08/19 09:42:43;;;;;;;9.48;5.68;;;;;;;34.82;29.32;99334.56;5081039;28;20070;-72
2022/08/19 09:45:09;;;;;;;8.95;5.05;;;;;;;34.92;28.10;99338.84;5079837;28;20028;-72
2022/08/19 09:47:37;;;;;;;12.98;5.70;;;;;;;35.00;27.97;99324.25;5081136;28;20040;-72
2022/08/19 09:50:05;;;;;;;9.18;5.40;;;;;;;34.93;28.80;99332.22;5080193;28;20033;-72
2022/08/19 09:52:31;;;;;;;10.48;5.85;;;;;;;34.89;29.31;99316.38;5081506;28;20086;-72
2022/08/19 09:54:56;;;;;;;11.65;5.57;;;;;;;34.99;29.02;99328.13;5082249;28;20322;-72
2022/08/19 09:57:22;;;;;;;6.13;4.57;;;;;;;35.00;27.01;99325.03;5081176;28;20036;-72
2022/08/19 09:59:48;;;;;;;8.25;5.10;;;;;;;34.90;27.05;99328.19;5079756;28;20218;-72
2022/08/19 10:02:13;;;;;;;6.97;4.40;;;;;;;34.92;26.78;99320.41;5079893;28;20029;-72
2022/08/19 10:07:23;;;;;;;7.60;4.70;;;;;;;35.13;26.84;99312.16;5080123;28;20031;-72
2022/08/19 10:09:48;;;;;;;10.05;5.32;;;;;;;35.19;27.40;99311.63;5079710;28;20032;-72
2022/08/19 10:12:15;;;;;;;8.32;4.90;;;;;;;35.17;27.70;99308.41;5081343;28;20032;-72
2022/08/19 10:14:40;;;;;;;6.80;5.00;;;;;;;35.26;26.41;99310.28;5081184;28;20081;-72
2022/08/19 10:17:06;;;;;;;10.98;5.22;;;;;;;35.28;26.57;99302.50;5081068;28;20040;-72
2022/08/19 10:19:35;;;;;;;8.65;4.78;;;;;;;35.12;26.60;99299.56;5082674;28;20039;-72
2022/08/19 10:22:06;;;;;;;9.10;5.18;;;;;;;34.86;27.31;99286.78;5062219;28;20104;-72
2022/08/19 10:24:33;;;;;;;8.07;5.05;;;;;;;34.95;27.07;99296.94;5081728;28;20373;-72
2022/08/19 10:27:00;;;;;;;6.50;4.65;;;;;;;34.85;28.36;99290.69;5081794;28;20040;-72
2022/08/19 10:29:31;;;;;;;8.65;4.90;;;;;;;34.83;27.73;99284.72;5079474;28;20028;-72
2022/08/19 10:31:58;;;;;;;8.27;5.30;;;;;;;34.96;27.51;99285.59;5079941;28;20056;-73
2022/08/19 10:34:24;;;;;;;8.07;5.20;;;;;;;34.83;27.38;99283.91;5081668;28;20103;-72
2022/08/19 10:36:50;;;;;;;11.00;5.43;;;;;;;34.86;26.87;99286.78;5080726;28;20399;-72
2022/08/19 10:39:16;;;;;;;7.68;5.07;;;;;;;34.82;26.59;99277.59;5079208;28;20157;-72
2022/08/19 10:41:43;;;;;;;11.18;5.07;;;;;;;34.75;27.91;99281.97;5079783;28;20044;-72
2022/08/19 10:44:11;;;;;;;7.30;5.25;;;;;;;34.68;27.78;99281.72;5080021;28;20029;-72
2022/08/19 10:46:41;;;;;;;10.80;5.32;;;;;;;34.85;26.35;99281.63;5081269;28;20045;-72
2022/08/19 10:49:08;;;;;;;6.18;5.03;;;;;;;34.95;26.97;99277.66;5079436;28;20031;-72
2022/08/19 10:54:18;;;;;;;12.63;5.47;;;;;;;34.97;27.28;99267.94;5079235;28;20024;-72
2022/08/19 10:56:53;;;;;;;8.52;5.38;;;;;;;35.00;26.07;99264.53;5078345;28;20044;-72
2022/08/19 10:59:28;;;;;;;10.27;4.97;;;;;;;34.86;25.48;99264.78;5078636;28;20020;-72
2022/08/19 11:01:58;;;;;;;6.82;4.70;;;;;;;34.77;25.55;99271.47;5075915;28;20059;-72
2022/08/19 11:04:24;;;;;;;5.38;4.63;;;;;;;34.81;26.25;99264.16;5080847;28;20269;-72
2022/08/19 11:06:49;;;;;;;6.60;4.90;;;;;;;34.95;25.55;99263.91;5063148;28;20304;-72
2022/08/19 11:09:19;;;;;;;8.60;5.32;;;;;;;34.88;25.50;99258.94;5078723;28;20351;-72
2022/08/19 11:11:45;;;;;;;10.77;4.80;;;;;;;34.97;25.31;99258.88;5078473;28;20074;-72
2022/08/19 11:14:13;;;;;;;8.85;5.50;;;;;;;34.79;26.63;99258.97;5079309;28;20028;-72
2022/08/19 11:16:40;;;;;;;9.50;5.68;;;;;;;34.89;26.98;99247.63;5078285;28;20063;-72
2022/08/19 11:19:08;;;;;;;8.93;5.28;;;;;;;35.00;26.74;99248.00;5080812;28;20043;-72
2022/08/19 11:21:37;;;;;;;9.65;4.65;;;;;;;35.14;25.86;99240.28;5078900;28;20044;-72
2022/08/19 11:24:06;;;;;;;8.95;4.78;;;;;;;35.29;25.96;99251.81;5078361;28;20107;-72
2022/08/19 11:26:33;;;;;;;26.30;5.32;;;;;;;35.35;25.40;99253.25;5078307;28;20270;-72
2022/08/19 11:28:59;;;;;;;10.30;5.00;;;;;;;35.20;24.86;99240.88;5078964;28;20028;-72
2022/08/19 11:31:28;;;;;;;8.82;4.50;;;;;;;35.18;25.00;99243.97;5075944;28;20036;-72
2022/08/19 11:33:55;;;;;;;8.05;4.40;;;;;;;35.03;26.07;99241.03;5078375;28;20205;-72
2022/08/19 11:36:21;;;;;;;7.55;5.05;;;;;;;35.09;25.20;99242.44;5078948;28;20060;-71
2022/08/19 11:38:48;;;;;;;11.90;5.15;;;;;;;35.04;25.13;99232.44;5077905;28;20090;-72
2022/08/19 11:41:16;;;;;;;9.80;4.75;;;;;;;35.25;24.22;99237.13;5078172;28;20055;-72
2022/08/19 11:43:41;;;;;;;6.72;4.80;;;;;;;35.10;24.56;99239.34;5078476;28;20021;-72
2022/08/19 11:46:10;;;;;;;7.88;4.70;;;;;;;35.12;26.18;99233.50;5077785;28;20362;-72
2022/08/19 11:48:36;;;;;;;12.77;4.90;;;;;;;35.18;25.69;99232.97;5077944;28;20040;-72